sensor_id;sensor_type;location;lat;lon;timestamp;pressure;altitude;pressure_sealevel;temperature;humidity
48386;BME280;34644;47.964;7.982;2023-01-26T00:01:16;97064.22;;;14.62;64.81
48386;BME280;34644;47.964;7.982;2023-01-26T00:08:17;97048.88;;;14.64;64.55
48386;BME280;34644;47.964;7.982;2023-01-26T00:15:17;97045.47;;;14.69;64.49
48386;BME280;34644;47.964;7.982;2023-01-26T00:22:18;97038.59;;;14.73;64.59
48386;BME280;34644;47.964;7.982;2023-01-26T00:29:18;97025.34;;;14.73;64.17
48386;BME280;34644;47.964;7.982;2023-01-26T00:36:19;97017.38;;;14.73;64.27
48386;BME280;34644;47.964;7.982;2023-01-26T00:43:19;97013.69;;;14.74;64.24
48386;BME280;34644;47.964;7.982;2023-01-26T00:50:20;97000.66;;;14.73;64.33
48386;BME280;34644;47.964;7.982;2023-01-26T00:57:20;96998.25;;;14.71;64.29
48386;BME280;34644;47.964;7.982;2023-01-26T01:04:21;96997.72;;;14.69;64.20
48386;BME280;34644;47.964;7.982;2023-01-26T01:11:22;96994.25;;;14.69;64.14
48386;BME280;34644;47.964;7.982;2023-01-26T01:18:24;96967.19;;;14.67;64.16
48386;BME280;34644;47.964;7.982;2023-01-26T01:25:24;96974.88;;;14.68;64.30
48386;BME280;34644;47.964;7.982;2023-01-26T01:32:25;96971.69;;;14.66;64.15
48386;BME280;34644;47.964;7.982;2023-01-26T01:39:25;96965.03;;;14.63;64.05
48386;BME280;34644;47.964;7.982;2023-01-26T01:46:29;96963.41;;;14.62;64.06
48386;BME280;34644;47.964;7.982;2023-01-26T01:53:35;96955.44;;;14.62;63.89
48386;BME280;34644;47.964;7.982;2023-01-26T02:00:37;96956.78;;;14.60;64.01
48386;BME280;34644;47.964;7.982;2023-01-26T02:07:37;96952.47;;;14.59;63.73
48386;BME280;34644;47.964;7.982;2023-01-26T02:14:37;96957.25;;;14.57;63.76
48386;BME280;34644;47.964;7.982;2023-01-26T02:21:38;96951.13;;;14.56;63.80
48386;BME280;34644;47.964;7.982;2023-01-26T02:28:40;96943.16;;;14.56;63.69
48386;BME280;34644;47.964;7.982;2023-01-26T02:35:41;96933.97;;;14.64;63.49
48386;BME280;34644;47.964;7.982;2023-01-26T02:42:41;96925.84;;;14.71;63.57
48386;BME280;34644;47.964;7.982;2023-01-26T02:49:43;96909.41;;;14.74;63.22
48386;BME280;34644;47.964;7.982;2023-01-26T02:56:47;96905.94;;;14.73;63.32
48386;BME280;34644;47.964;7.982;2023-01-26T03:03:48;96906.75;;;14.74;63.07
48386;BME280;34644;47.964;7.982;2023-01-26T03:10:48;96911.78;;;14.75;63.12
48386;BME280;34644;47.964;7.982;2023-01-26T03:17:48;96905.16;;;14.73;63.16
48386;BME280;34644;47.964;7.982;2023-01-26T03:24:50;96898.25;;;14.72;63.39
48386;BME280;34644;47.964;7.982;2023-01-26T03:32:10;96895.03;;;14.70;63.40
48386;BME280;34644;47.964;7.982;2023-01-26T03:39:11;96904.88;;;14.69;63.21
48386;BME280;34644;47.964;7.982;2023-01-26T03:46:32;96897.16;;;14.68;63.16
48386;BME280;34644;47.964;7.982;2023-01-26T03:53:51;96909.59;;;14.67;63.34
48386;BME280;34644;47.964;7.982;2023-01-26T04:01:11;96890.50;;;14.65;63.28
48386;BME280;34644;47.964;7.982;2023-01-26T04:08:17;96902.16;;;14.64;63.22
48386;BME280;34644;47.964;7.982;2023-01-26T04:15:31;96899.75;;;14.62;63.02
48386;BME280;34644;47.964;7.982;2023-01-26T04:22:50;96888.81;;;14.59;63.11
48386;BME280;34644;47.964;7.982;2023-01-26T04:29:50;96872.91;;;14.59;63.08
48386;BME280;34644;47.964;7.982;2023-01-26T04:36:51;96874.75;;;14.58;63.11
48386;BME280;34644;47.964;7.982;2023-01-26T04:43:53;96868.38;;;14.59;63.19
48386;BME280;34644;47.964;7.982;2023-01-26T04:50:54;96858.69;;;14.70;63.28
48386;BME280;34644;47.964;7.982;2023-01-26T04:57:54;96844.00;;;14.90;62.66
48386;BME280;34644;47.964;7.982;2023-01-26T05:04:56;96834.31;;;15.16;61.99
48386;BME280;34644;47.964;7.982;2023-01-26T05:11:58;96825.91;;;15.29;61.74
48386;BME280;34644;47.964;7.982;2023-01-26T05:19:47;96835.47;;;15.30;62.07
48386;BME280;34644;47.964;7.982;2023-01-26T05:27:06;96841.25;;;15.22;62.06
48386;BME280;34644;47.964;7.982;2023-01-26T05:34:32;96844.41;;;15.14;62.46
48386;BME280;34644;47.964;7.982;2023-01-26T05:41:32;96857.94;;;15.12;63.02
48386;BME280;34644;47.964;7.982;2023-01-26T05:48:52;96847.25;;;15.02;62.55
48386;BME280;34644;47.964;7.982;2023-01-26T05:55:52;96853.88;;;14.99;62.79
48386;BME280;34644;47.964;7.982;2023-01-26T06:02:56;96854.13;;;14.98;62.90
48386;BME280;34644;47.964;7.982;2023-01-26T06:09:56;96848.25;;;14.96;62.95
48386;BME280;34644;47.964;7.982;2023-01-26T06:17:28;96840.59;;;14.94;63.10
48386;BME280;34644;47.964;7.982;2023-01-26T06:24:32;96835.78;;;14.91;63.44
48386;BME280;34644;47.964;7.982;2023-01-26T06:31:34;96829.13;;;14.89;63.41
48386;BME280;34644;47.964;7.982;2023-01-26T06:38:37;96832.28;;;14.86;63.43
48386;BME280;34644;47.964;7.982;2023-01-26T06:45:37;96830.13;;;14.82;63.52
48386;BME280;34644;47.964;7.982;2023-01-26T06:52:38;96822.69;;;14.79;63.60
48386;BME280;34644;47.964;7.982;2023-01-26T06:59:51;96835.66;;;14.76;63.78
48386;BME280;34644;47.964;7.982;2023-01-26T07:07:17;96833.03;;;14.76;63.62
48386;BME280;34644;47.964;7.982;2023-01-26T07:14:18;96832.78;;;14.82;63.36
48386;BME280;34644;47.964;7.982;2023-01-26T07:21:18;96842.91;;;14.91;63.22
48386;BME280;34644;47.964;7.982;2023-01-26T07:28:18;96846.78;;;15.10;62.88
48386;BME280;34644;47.964;7.982;2023-01-26T07:35:18;96846.28;;;15.18;62.49
48386;BME280;34644;47.964;7.982;2023-01-26T07:42:19;96856.59;;;15.10;62.66
48386;BME280;34644;47.964;7.982;2023-01-26T07:49:22;96850.72;;;15.02;62.94
48386;BME280;34644;47.964;7.982;2023-01-26T07:56:22;96854.13;;;14.98;63.09
48386;BME280;34644;47.964;7.982;2023-01-26T08:03:23;96853.56;;;14.96;62.98
48386;BME280;34644;47.964;7.982;2023-01-26T08:10:23;96852.25;;;14.93;63.27
48386;BME280;34644;47.964;7.982;2023-01-26T08:17:23;96855.16;;;14.92;63.14
48386;BME280;34644;47.964;7.982;2023-01-26T08:24:24;96849.31;;;14.90;63.22
48386;BME280;34644;47.964;7.982;2023-01-26T08:31:25;96847.94;;;14.87;63.32
48386;BME280;34644;47.964;7.982;2023-01-26T08:38:28;96844.75;;;14.85;63.38
48386;BME280;34644;47.964;7.982;2023-01-26T08:45:29;96851.13;;;14.84;63.61
48386;BME280;34644;47.964;7.982;2023-01-26T08:52:29;96850.81;;;14.80;63.47
48386;BME280;34644;47.964;7.982;2023-01-26T08:59:29;96848.69;;;14.77;63.46
48386;BME280;34644;47.964;7.982;2023-01-26T09:06:30;96850.78;;;14.75;63.76
48386;BME280;34644;47.964;7.982;2023-01-26T09:13:32;96844.94;;;14.73;63.71
48386;BME280;34644;47.964;7.982;2023-01-26T09:20:32;96849.44;;;14.73;63.65
48386;BME280;34644;47.964;7.982;2023-01-26T09:27:32;96864.81;;;14.71;63.51
48386;BME280;34644;47.964;7.982;2023-01-26T09:34:33;96870.63;;;14.68;63.77
48386;BME280;34644;47.964;7.982;2023-01-26T09:55:55;96869.25;;;14.60;63.78
48386;BME280;34644;47.964;7.982;2023-01-26T10:10:05;96859.59;;;14.54;63.62
48386;BME280;34644;47.964;7.982;2023-01-26T10:17:06;96869.41;;;14.53;63.76
48386;BME280;34644;47.964;7.982;2023-01-26T10:24:12;96868.84;;;14.51;63.74
48386;BME280;34644;47.964;7.982;2023-01-26T10:45:46;96863.72;;;14.67;63.23
48386;BME280;34644;47.964;7.982;2023-01-26T10:53:02;96857.13;;;14.69;63.25
48386;BME280;34644;47.964;7.982;2023-01-26T11:00:08;96843.03;;;14.69;63.17
48386;BME280;34644;47.964;7.982;2023-01-26T11:07:26;96831.38;;;14.70;63.26
48386;BME280;34644;47.964;7.982;2023-01-26T11:14:27;96823.66;;;14.68;63.21
48386;BME280;34644;47.964;7.982;2023-01-26T11:21:34;96818.38;;;14.68;63.07
48386;BME280;34644;47.964;7.982;2023-01-26T11:50:05;96813.78;;;15.59;60.80
48386;BME280;34644;47.964;7.982;2023-01-26T11:57:22;96804.03;;;15.75;60.73
48386;BME280;34644;47.964;7.982;2023-01-26T12:04:26;96791.81;;;15.74;60.71
48386;BME280;34644;47.964;7.982;2023-01-26T12:11:32;96778.00;;;15.72;60.89
48386;BME280;34644;47.964;7.982;2023-01-26T12:18:41;96772.38;;;15.63;61.32
48386;BME280;34644;47.964;7.982;2023-01-26T12:25:45;96763.06;;;15.55;61.61
48386;BME280;34644;47.964;7.982;2023-01-26T12:32:48;96751.59;;;15.45;61.90
48386;BME280;34644;47.964;7.982;2023-01-26T12:54:30;96732.69;;;15.26;62.17
48386;BME280;34644;47.964;7.982;2023-01-26T13:01:37;96734.28;;;15.22;62.40
48386;BME280;34644;47.964;7.982;2023-01-26T13:08:40;96728.13;;;15.16;62.49
48386;BME280;34644;47.964;7.982;2023-01-26T13:15:40;96728.38;;;15.09;62.78
48386;BME280;34644;47.964;7.982;2023-01-26T13:22:43;96731.03;;;15.04;62.74
48386;BME280;34644;47.964;7.982;2023-01-26T13:29:52;96737.09;;;14.99;62.67
48386;BME280;34644;47.964;7.982;2023-01-26T13:36:58;96735.47;;;14.93;62.87
48386;BME280;34644;47.964;7.982;2023-01-26T13:44:06;96741.03;;;14.92;62.87
48386;BME280;34644;47.964;7.982;2023-01-26T13:51:13;96731.97;;;14.88;63.01
48386;BME280;34644;47.964;7.982;2023-01-26T13:58:16;96731.72;;;14.84;62.96
48386;BME280;34644;47.964;7.982;2023-01-26T14:05:20;96742.84;;;14.81;63.21
48386;BME280;34644;47.964;7.982;2023-01-26T14:12:32;96752.91;;;14.79;63.01
48386;BME280;34644;47.964;7.982;2023-01-26T14:19:37;96753.44;;;14.76;63.16
48386;BME280;34644;47.964;7.982;2023-01-26T14:26:37;96750.25;;;14.74;63.14
48386;BME280;34644;47.964;7.982;2023-01-26T14:33:39;96748.09;;;14.71;63.25
48386;BME280;34644;47.964;7.982;2023-01-26T14:40:46;96755.75;;;14.67;63.29
48386;BME280;34644;47.964;7.982;2023-01-26T14:47:47;96752.03;;;14.63;63.27
48386;BME280;34644;47.964;7.982;2023-01-26T14:54:47;96770.03;;;14.61;63.18
48386;BME280;34644;47.964;7.982;2023-01-26T15:01:49;96775.03;;;14.57;63.21
48386;BME280;34644;47.964;7.982;2023-01-26T15:08:54;96770.22;;;14.54;63.26
48386;BME280;34644;47.964;7.982;2023-01-26T15:16:04;96771.56;;;14.52;63.26
48386;BME280;34644;47.964;7.982;2023-01-26T15:23:40;96773.63;;;14.50;63.33
48386;BME280;34644;47.964;7.982;2023-01-26T15:30:34;96765.41;;;14.46;63.39
48386;BME280;34644;47.964;7.982;2023-01-26T15:37:34;96780.00;;;14.48;63.26
48386;BME280;34644;47.964;7.982;2023-01-26T15:44:35;96781.91;;;14.53;63.11
48386;BME280;34644;47.964;7.982;2023-01-26T15:51:36;96779.53;;;14.57;62.94
48386;BME280;34644;47.964;7.982;2023-01-26T15:58:36;96776.88;;;14.57;63.06
48386;BME280;34644;47.964;7.982;2023-01-26T16:05:36;96773.41;;;14.56;62.86
48386;BME280;34644;47.964;7.982;2023-01-26T16:12:36;96784.44;;;14.75;62.26
48386;BME280;34644;47.964;7.982;2023-01-26T16:19:37;96787.50;;;14.57;63.24
48386;BME280;34644;47.964;7.982;2023-01-26T16:26:37;96793.56;;;14.52;63.74
48386;BME280;34644;47.964;7.982;2023-01-26T16:33:37;96792.50;;;14.53;64.29
48386;BME280;34644;47.964;7.982;2023-01-26T16:40:38;96783.41;;;14.76;64.05
48386;BME280;34644;47.964;7.982;2023-01-26T16:47:39;96783.34;;;15.14;63.24
48386;BME280;34644;47.964;7.982;2023-01-26T16:54:40;96789.28;;;15.31;63.09
48386;BME280;34644;47.964;7.982;2023-01-26T17:01:40;96799.97;;;15.47;63.23
48386;BME280;34644;47.964;7.982;2023-01-26T17:08:40;96790.13;;;15.52;63.09
48386;BME280;34644;47.964;7.982;2023-01-26T17:15:41;96789.09;;;15.48;63.43
48386;BME280;34644;47.964;7.982;2023-01-26T17:22:42;96788.78;;;15.45;63.65
48386;BME280;34644;47.964;7.982;2023-01-26T17:29:42;96797.25;;;15.42;64.50
48386;BME280;34644;47.964;7.982;2023-01-26T17:36:42;96794.31;;;15.33;64.54
48386;BME280;34644;47.964;7.982;2023-01-26T17:43:43;96796.16;;;15.27;64.86
48386;BME280;34644;47.964;7.982;2023-01-26T17:50:49;96803.56;;;15.20;64.82
48386;BME280;34644;47.964;7.982;2023-01-26T17:57:49;96807.50;;;15.17;65.20
48386;BME280;34644;47.964;7.982;2023-01-26T18:04:49;96799.53;;;15.12;65.35
48386;BME280;34644;47.964;7.982;2023-01-26T18:11:50;96803.22;;;15.06;65.26
48386;BME280;34644;47.964;7.982;2023-01-26T18:18:53;96800.78;;;14.99;65.62
48386;BME280;34644;47.964;7.982;2023-01-26T18:25:54;96796.50;;;14.93;65.43
48386;BME280;34644;47.964;7.982;2023-01-26T18:32:54;96800.97;;;14.88;65.43
48386;BME280;34644;47.964;7.982;2023-01-26T18:39:54;96804.13;;;14.79;65.22
48386;BME280;34644;47.964;7.982;2023-01-26T18:46:55;96805.66;;;14.75;65.33
48386;BME280;34644;47.964;7.982;2023-01-26T18:53:55;96805.13;;;14.73;65.21
48386;BME280;34644;47.964;7.982;2023-01-26T19:00:55;96813.34;;;13.85;58.17
48386;BME280;34644;47.964;7.982;2023-01-26T19:07:56;96814.59;;;14.32;61.11
48386;BME280;34644;47.964;7.982;2023-01-26T19:14:56;96813.88;;;14.41;61.69
48386;BME280;34644;47.964;7.982;2023-01-26T19:21:57;96810.72;;;14.44;62.47
48386;BME280;34644;47.964;7.982;2023-01-26T19:28:57;96814.16;;;14.45;62.82
48386;BME280;34644;47.964;7.982;2023-01-26T19:36:00;96805.44;;;14.44;63.12
48386;BME280;34644;47.964;7.982;2023-01-26T19:43:00;96809.13;;;14.43;63.49
48386;BME280;34644;47.964;7.982;2023-01-26T19:50:01;96802.22;;;14.42;63.40
48386;BME280;34644;47.964;7.982;2023-01-26T19:57:01;96813.09;;;14.41;63.45
48386;BME280;34644;47.964;7.982;2023-01-26T20:04:03;96810.69;;;14.39;63.60
48386;BME280;34644;47.964;7.982;2023-01-26T20:11:04;96806.19;;;14.40;63.67
48386;BME280;34644;47.964;7.982;2023-01-26T20:18:04;96803.78;;;14.38;63.91
48386;BME280;34644;47.964;7.982;2023-01-26T20:25:06;96808.31;;;14.43;64.18
48386;BME280;34644;47.964;7.982;2023-01-26T20:32:10;96795.75;;;14.60;64.84
48386;BME280;34644;47.964;7.982;2023-01-26T20:39:12;96797.63;;;14.60;64.67
48386;BME280;34644;47.964;7.982;2023-01-26T20:46:13;96797.84;;;14.58;64.70
48386;BME280;34644;47.964;7.982;2023-01-26T20:53:14;96789.66;;;14.60;65.08
48386;BME280;34644;47.964;7.982;2023-01-26T21:00:15;96783.34;;;14.66;64.09
48386;BME280;34644;47.964;7.982;2023-01-26T21:07:15;96788.81;;;14.59;63.89
48386;BME280;34644;47.964;7.982;2023-01-26T21:14:15;96782.06;;;14.41;64.01
48386;BME280;34644;47.964;7.982;2023-01-26T21:21:16;96779.91;;;14.38;64.21
48386;BME280;34644;47.964;7.982;2023-01-26T21:28:20;96778.31;;;14.37;64.39
48386;BME280;34644;47.964;7.982;2023-01-26T21:35:20;96775.91;;;14.36;64.46
48386;BME280;34644;47.964;7.982;2023-01-26T21:42:21;96773.50;;;14.34;64.46
48386;BME280;34644;47.964;7.982;2023-01-26T21:49:22;96770.31;;;14.32;64.80
48386;BME280;34644;47.964;7.982;2023-01-26T21:56:22;96765.63;;;14.39;63.86
48386;BME280;34644;47.964;7.982;2023-01-26T22:03:23;96763.22;;;14.38;63.40
48386;BME280;34644;47.964;7.982;2023-01-26T22:10:23;96758.75;;;14.43;62.96
48386;BME280;34644;47.964;7.982;2023-01-26T22:17:23;96754.84;;;14.56;62.54
48386;BME280;34644;47.964;7.982;2023-01-26T22:24:23;96753.66;;;14.69;62.13
48386;BME280;34644;47.964;7.982;2023-01-26T22:31:25;96757.38;;;14.73;62.16
48386;BME280;34644;47.964;7.982;2023-01-26T22:38:26;96776.19;;;14.72;62.07
48386;BME280;34644;47.964;7.982;2023-01-26T22:45:26;96770.63;;;14.68;62.11
48386;BME280;34644;47.964;7.982;2023-01-26T22:52:26;96769.00;;;14.67;62.05
48386;BME280;34644;47.964;7.982;2023-01-26T22:59:27;96769.53;;;14.64;62.12
48386;BME280;34644;47.964;7.982;2023-01-26T23:06:27;96752.03;;;14.63;62.41
48386;BME280;34644;47.964;7.982;2023-01-26T23:13:28;96753.06;;;14.62;62.34
48386;BME280;34644;47.964;7.982;2023-01-26T23:20:31;96745.38;;;14.60;62.31
48386;BME280;34644;47.964;7.982;2023-01-26T23:27:31;96750.09;;;14.58;62.29
48386;BME280;34644;47.964;7.982;2023-01-26T23:34:31;96742.41;;;14.57;62.30
48386;BME280;34644;47.964;7.982;2023-01-26T23:41:31;96729.13;;;14.52;62.61
48386;BME280;34644;47.964;7.982;2023-01-26T23:48:32;96725.91;;;14.50;62.46
48386;BME280;34644;47.964;7.982;2023-01-26T23:55:32;96712.09;;;14.47;62.63
